Date,TemperatureHighF,TemperatureAvgF,TemperatureLowF,DewpointHighF,DewpointAvgF,DewpointLowF,HumidityHigh,HumidityAvg,HumidityLow,PressureMaxIn,PressureMinIn,WindSpeedMaxMPH,WindSpeedAvgMPH,GustSpeedMaxMPH,PrecipitationSumIn
2013-2-1,32,26,18,17,9,4,64,50,38,29.58,29.10,18,3,18,0.00
2013-2-2,30,22,12,13,7,2,66,53,40,29.73,29.54,10,2,10,0.00
2013-2-3,27,22,14,19,16,9,85,77,67,29.55,29.23,6,1,6,0.00
2013-2-4,29,22,14,16,10,4,86,62,42,29.43,29.23,13,3,13,0.00
2013-2-5,32,23,14,18,12,5,79,63,46,29.50,29.42,6,1,6,0.00
2013-2-6,38,27,19,24,16,4,89,66,45,29.79,29.41,9,2,9,0.01
2013-2-7,31,22,9,7,4,2,73,48,32,30.00,29.78,10,1,10,0.00
2013-2-8,23,20,16,19,14,3,92,79,44,29.97,29.19,17,4,17,0.00
2013-2-9,23,18,13,18,12,1,93,79,58,29.72,29.16,17,6,17,0.00
2013-2-10,42,21,9,12,3,-2,68,46,27,29.90,29.71,11,2,11,0.09
2013-2-11,40,27,10,38,22,1,95,82,68,29.84,29.12,9,0,9,0.18
2013-2-12,40,36,33,36,29,27,87,77,63,29.20,29.13,9,3,9,0.02
2013-2-13,46,34,26,28,23,19,77,65,46,29.37,29.21,6,1,8,0.00
2013-2-14,49,33,24,25,21,17,78,61,39,29.49,29.22,5,1,7,0.00
2013-2-15,53,36,23,34,27,18,88,70,45,29.48,29.40,8,2,14,0.00
2013-2-16,40,34,27,29,23,16,70,63,57,29.39,29.26,9,2,9,0.07
2013-2-17,26,20,14,17,7,0,87,58,46,29.26,28.95,19,6,19,0.01
2013-2-18,33,20,11,4,1,-2,59,44,26,29.65,29.21,19,4,19,0.00
2013-2-19,46,32,18,36,21,2,92,63,44,29.66,29.10,12,1,12,0.22
2013-2-20,37,30,24,35,19,11,92,64,44,29.28,29.06,14,4,14,0.01
2013-2-21,33,26,21,16,13,9,72,59,44,29.71,29.25,17,4,17,0.00
2013-2-22,42,30,20,23,19,14,81,64,43,29.88,29.71,13,2,13,0.00
2013-2-23,37,32,26,30,26,18,94,80,72,29.84,29.43,8,1,8,0.00
2013-2-24,35,32,31,33,31,29,96,94,92,29.43,29.24,8,1,8,0.23
2013-2-25,41,33,24,36,30,21,95,88,75,29.73,29.40,5,0,5,0.38
2013-2-26,46,36,31,36,30,26,93,79,63,29.83,29.66,6,1,6,0.44
2013-2-27,39,34,32,38,33,28,97,94,84,29.66,29.10,13,3,13,1.32
2013-2-28,49,37,31,43,34,28,97,89,73,29.15,29.05,8,1,8,0.04